Kings Mountain, NC (28086)

5:08 AM EDT on August 28, 2015 (GMT -0400)
SonRidge Farm | | Change Station
CLOSE
Current Station
Personal Weather Station
Location: Kings Mountain, NC
Elevation: 846 ft
Nearby Weather Stations

Elev 846 ft 35.27 °N, 81.41 °W | Updated 13 minutes ago

Clear
Clear
59.5 °F
Feels Like 59.5 °F
N
0.0
Wind Variable Wind from ENE

Today
High -- | Low -- °F
--% Chance of Precip.
Yesterday
High -- | Low -- °F
Precip. -- in
6:54 AM 7:58 PM
Waxing Gibbous, 97% visible
Pressure 30.12 in
Visibility 8.0 miles
Clouds Clear
Dew Point 59 °F
Humidity 99%
Rainfall 0.00 in
Snow Depth Not available.
UV 0 out of 12
Pollen 8.60 out of 12
Air Quality Not available.
Flu Activity Not available.
METAR KAKH 280854Z AUTO 00000KT 8SM CLR 18/16 A3013 RMK AO2 SLP197 T01780156 53002
Pressure 30.12 in
Visibility 8.0 miles
Clouds Clear
Dew Point 59 °F
Humidity 99%
Rainfall 0.00 in
Snow Depth Not available.
UV 0 out of 12
Pollen 8.60 out of 12
Air Quality Not available.
Flu Activity Not available.
METAR KAKH 280854Z AUTO 00000KT 8SM CLR 18/16 A3013 RMK AO2 SLP197 T01780156 53002

10-Day Weather Forecast

×

Almanac

Astronomy

Aug. 28, 2015 Rise Set
Actual Time
Civil Twilight
Nautical Twilight
Astronomical Twilight
Moon
Length of Visible Light
Length of Day
Tomorrow will be .
, % of the Moon is Illuminated

Today's Extremes

State Highs State Lows

Community

WunderPhotos

Upload Photos

1,850,355 photos uploaded!

WunderBlogs® & News

Nearby

Air Quality

  Air Quality AQ Index Pollutant
Not available.

Snow Depth

Station Depth Elevation

Earthquake Activity

City Distance Mag. Time & Date
Minimum magnitude displayed is 2.5.

Coastal Water Temperatures

Place Temperature

Stations

Nearby Weather Stations

Station Location Temp. Windchill Dew Point Humidity Wind Precip. Elev Updated Type